Time;durP1;ratioP1;P1;durP2;ratioP2;P2;SDS_P1;SDS_P2;PMS_P1;PMS_P2;Temp;Humidity;BMP_temperature;BMP_pressure;BME280_temperature;BME280_humidity;BME280_pressure;Samples;Min_cycle;Max_cycle;Signal;HPM_P1;HPM_P2
2023/06/20 00:00:49;;;;;;;11.98;10.05;;;;;;;23.41;47.86;98988.41;5046795;28;20045;-74
2023/06/20 00:03:16;;;;;;;10.60;9.50;;;;;;;23.51;47.61;98985.50;5046782;28;20037;-74
2023/06/20 00:05:43;;;;;;;10.98;9.07;;;;;;;23.60;47.60;98984.44;5046633;28;20041;-75
2023/06/20 00:08:10;;;;;;;11.98;9.57;;;;;;;23.59;47.67;98977.34;5046635;28;20112;-75
2023/06/20 00:10:37;;;;;;;10.80;9.75;;;;;;;23.60;47.56;98979.03;5046880;28;20040;-75
2023/06/20 00:13:04;;;;;;;10.18;9.20;;;;;;;23.54;47.94;98977.03;5046316;28;20053;-75
2023/06/20 00:15:31;;;;;;;11.25;9.93;;;;;;;23.54;48.10;98985.97;5046819;28;20041;-74
2023/06/20 00:18:00;;;;;;;10.70;8.45;;;;;;;23.52;47.91;99000.69;5046225;28;20103;-75
2023/06/20 00:20:27;;;;;;;12.00;10.77;;;;;;;23.52;47.99;98979.91;5046284;28;20053;-75
2023/06/20 00:22:54;;;;;;;10.55;8.93;;;;;;;23.54;47.81;98980.56;5046458;28;20041;-74
2023/06/20 00:25:21;;;;;;;13.10;11.70;;;;;;;23.49;48.26;98982.97;5046519;28;20117;-75
2023/06/20 00:27:48;;;;;;;12.48;11.27;;;;;;;23.35;48.53;98981.84;5045977;28;20059;-74
2023/06/20 00:30:15;;;;;;;11.32;10.13;;;;;;;23.33;48.70;98986.56;5046286;28;20229;-75
2023/06/20 00:32:42;;;;;;;11.90;9.70;;;;;;;23.23;49.01;98980.50;5046009;28;20037;-75
2023/06/20 00:35:10;;;;;;;11.38;10.27;;;;;;;23.25;49.09;98978.47;5046209;28;20037;-74
2023/06/20 00:37:38;;;;;;;11.20;9.68;;;;;;;23.32;48.95;98982.19;5046170;28;20041;-74
2023/06/20 00:40:07;;;;;;;12.43;10.52;;;;;;;23.32;48.91;98981.34;5045738;28;20221;-75
2023/06/20 00:42:34;;;;;;;12.15;10.90;;;;;;;23.33;48.88;98983.03;5046097;28;20065;-74
2023/06/20 00:45:01;;;;;;;10.93;9.82;;;;;;;23.30;49.23;98984.22;5046323;28;20047;-75
2023/06/20 00:47:28;;;;;;;11.98;10.18;;;;;;;23.23;49.12;98974.25;5045949;28;20060;-74
2023/06/20 00:49:56;;;;;;;12.43;10.40;;;;;;;23.14;49.28;98973.44;5046245;28;20073;-75
2023/06/20 00:52:25;;;;;;;14.73;9.65;;;;;;;23.19;49.16;98972.91;5045800;28;20037;-74
2023/06/20 00:54:52;;;;;;;12.23;10.30;;;;;;;23.23;48.99;98964.28;5045877;28;20041;-74
2023/06/20 00:57:20;;;;;;;11.30;10.20;;;;;;;23.17;49.05;98959.56;5045885;28;20041;-75
2023/06/20 00:59:48;;;;;;;10.60;9.50;;;;;;;23.20;49.25;98956.50;5045548;28;20056;-74
2023/06/20 01:02:16;;;;;;;10.68;9.68;;;;;;;23.15;49.23;98953.50;5045538;28;20091;-74
2023/06/20 01:04:46;;;;;;;11.15;9.80;;;;;;;23.15;49.37;98949.94;5045726;28;20045;-74
2023/06/20 01:07:17;;;;;;;10.90;9.80;;;;;;;23.13;49.46;98954.69;5045950;28;20087;-74
2023/06/20 01:09:53;;;;;;;10.40;9.30;;;;;;;23.00;49.92;98949.81;5045993;28;20053;-75
2023/06/20 01:12:30;;;;;;;16.45;13.57;;;;;;;22.89;49.80;98931.28;5045693;28;20037;-75
2023/06/20 01:15:03;;;;;;;14.02;11.93;;;;;;;23.09;49.75;98953.34;5045369;28;20069;-75
2023/06/20 01:17:40;;;;;;;14.80;10.03;;;;;;;23.06;49.93;98954.53;5045918;28;20037;-74
2023/06/20 01:20:12;;;;;;;11.98;10.68;;;;;;;23.04;49.97;98956.56;5045585;28;20193;-75
2023/06/20 01:22:57;;;;;;;12.48;11.07;;;;;;;22.98;50.32;98954.56;5045589;28;20037;-74
2023/06/20 01:25:35;;;;;;;13.35;12.02;;;;;;;22.93;50.56;98951.53;5045578;28;20107;-75
2023/06/20 01:28:09;;;;;;;11.02;9.90;;;;;;;22.89;50.48;98952.91;5045486;28;20049;-74
2023/06/20 01:30:43;;;;;;;12.25;11.02;;;;;;;22.18;50.50;98841.06;5045817;28;20059;-74
2023/06/20 01:33:12;;;;;;;11.90;10.23;;;;;;;22.92;50.73;98952.56;5047252;28;20301;-75
2023/06/20 01:35:41;;;;;;;13.23;10.57;;;;;;;22.91;50.59;98948.16;5049567;28;20115;-74
2023/06/20 01:38:13;;;;;;;11.55;10.45;;;;;;;22.89;50.53;98947.50;5049490;28;20029;-74
2023/06/20 01:40:42;;;;;;;10.88;9.77;;;;;;;22.88;50.47;98951.22;5049014;28;20056;-74
2023/06/20 01:43:13;;;;;;;11.00;9.90;;;;;;;22.84;50.64;98936.38;5049250;28;20052;-74
2023/06/20 01:45:44;;;;;;;12.13;10.05;;;;;;;22.80;50.84;98943.97;5049363;28;20304;-74
2023/06/20 01:48:13;;;;;;;13.38;10.88;;;;;;;22.78;50.83;98929.78;5048967;28;20049;-74
2023/06/20 01:50:41;;;;;;;11.35;10.15;;;;;;;21.52;50.59;98715.34;5049533;28;20049;-74
2023/06/20 01:53:11;;;;;;;11.23;9.95;;;;;;;22.76;50.87;98922.88;5049759;28;20221;-75
2023/06/20 01:55:41;;;;;;;12.10;10.75;;;;;;;22.76;50.65;98934.53;5049206;28;20033;-74
2023/06/20 01:58:10;;;;;;;12.00;10.90;;;;;;;22.67;51.14;98938.25;5049397;28;20059;-75
2023/06/20 02:00:39;;;;;;;11.70;10.60;;;;;;;22.66;50.95;98940.13;5048954;28;20045;-74
2023/06/20 02:03:07;;;;;;;10.50;9.52;;;;;;;22.63;51.27;98945.00;5048981;28;20041;-75
2023/06/20 02:05:35;;;;;;;11.95;10.65;;;;;;;22.61;51.25;98939.78;5048886;28;20121;-74
2023/06/20 02:08:03;;;;;;;10.63;9.63;;;;;;;22.59;51.28;98946.38;5049106;28;20044;-74
2023/06/20 02:10:32;;;;;;;11.60;10.52;;;;;;;22.45;51.65;98928.13;5048654;28;20041;-74
2023/06/20 02:13:00;;;;;;;11.77;10.10;;;;;;;22.52;51.54;98948.03;5049116;28;20053;-74
2023/06/20 02:15:28;;;;;;;11.82;10.63;;;;;;;22.46;51.80;98946.84;5048808;28;20293;-74
2023/06/20 02:17:56;;;;;;;11.45;10.30;;;;;;;22.45;51.62;98944.31;5049075;28;20037;-74
2023/06/20 02:20:23;;;;;;;11.82;10.57;;;;;;;22.45;51.82;98947.88;5048729;28;20076;-73
2023/06/20 02:22:55;;;;;;;10.55;9.45;;;;;;;22.40;52.00;98951.09;5048964;28;20087;-74
2023/06/20 02:25:27;;;;;;;13.40;11.45;;;;;;;22.48;51.71;98950.22;5048382;28;20108;-74
2023/06/20 02:27:56;;;;;;;11.90;10.75;;;;;;;22.43;52.11;98944.50;5048282;28;20054;-74
2023/06/20 02:30:28;;;;;;;12.75;11.38;;;;;;;22.42;51.73;98949.06;5048789;28;20078;-74
2023/06/20 02:32:57;;;;;;;12.15;11.05;;;;;;;22.42;52.13;98945.50;5048238;28;20038;-74
2023/06/20 02:35:25;;;;;;;13.07;10.93;;;;;;;22.47;51.89;98939.59;5048223;28;20087;-74
2023/06/20 02:37:55;;;;;;;12.20;11.10;;;;;;;22.50;51.89;98942.81;5048683;28;20037;-74
2023/06/20 02:40:25;;;;;;;12.32;11.13;;;;;;;22.27;52.37;98920.19;5048013;28;20049;-74
2023/06/20 02:42:52;;;;;;;12.40;11.20;;;;;;;22.14;52.43;98912.59;5048048;28;20037;-74
2023/06/20 02:45:21;;;;;;;12.38;11.18;;;;;;;22.38;52.29;98954.94;5048216;28;20117;-74
2023/06/20 02:48:01;;;;;;;12.27;10.77;;;;;;;22.35;52.60;98949.88;5048421;28;20052;-74
2023/06/20 02:50:33;;;;;;;12.88;11.68;;;;;;;22.32;52.74;98944.81;5048161;28;20289;-74
2023/06/20 02:53:07;;;;;;;12.13;11.00;;;;;;;22.34;52.72;98950.88;5048126;28;20116;-74
2023/06/20 02:55:38;;;;;;;14.10;11.23;;;;;;;22.32;52.89;98958.31;5048078;28;20047;-74
2023/06/20 02:58:11;;;;;;;14.32;10.52;;;;;;;22.31;52.86;98953.94;5047716;28;20045;-73
2023/06/20 03:00:42;;;;;;;12.50;11.30;;;;;;;22.34;52.89;98959.81;5047976;28;20053;-73
2023/06/20 03:03:12;;;;;;;13.35;11.02;;;;;;;22.20;53.01;98936.22;5047598;28;20099;-74
2023/06/20 03:05:43;;;;;;;13.77;10.93;;;;;;;22.26;53.26;98945.50;5047544;28;20037;-74
2023/06/20 03:08:11;;;;;;;11.98;10.73;;;;;;;22.21;53.74;98947.84;5047859;28;20175;-74
2023/06/20 03:10:38;;;;;;;12.43;11.32;;;;;;;22.21;53.46;98948.69;5048073;28;20092;-74
2023/06/20 03:13:06;;;;;;;12.23;11.13;;;;;;;22.21;53.56;98953.25;5047739;28;20221;-74
2023/06/20 03:15:33;;;;;;;12.20;11.07;;;;;;;22.21;53.59;98961.34;5047631;28;20049;-74
2023/06/20 03:18:01;;;;;;;13.43;11.48;;;;;;;22.18;53.72;98962.53;5047916;28;20281;-74
2023/06/20 03:20:28;;;;;;;13.00;11.63;;;;;;;22.18;53.91;98959.81;5047588;28;20059;-74
2023/06/20 03:22:55;;;;;;;12.60;11.40;;;;;;;22.18;53.54;98969.78;5047606;28;20250;-74
2023/06/20 03:25:22;;;;;;;13.38;11.43;;;;;;;22.16;53.70;98980.75;5047829;28;20072;-74
2023/06/20 03:27:49;;;;;;;11.85;10.75;;;;;;;22.21;53.63;98972.97;5047355;28;20054;-74
2023/06/20 03:30:16;;;;;;;13.65;11.32;;;;;;;22.07;54.13;98970.94;5047681;28;20196;-74
2023/06/20 03:32:42;;;;;;;13.38;10.65;;;;;;;22.20;54.01;98986.66;5047620;28;20037;-74
2023/06/20 03:35:10;;;;;;;12.15;10.70;;;;;;;22.19;53.88;98985.81;5046758;28;20041;-74
2023/06/20 03:37:37;;;;;;;18.05;12.57;;;;;;;22.19;54.20;98988.50;5047565;28;20282;-74
2023/06/20 03:40:05;;;;;;;19.92;12.73;;;;;;;22.23;54.22;98983.63;5046867;28;20325;-74
2023/06/20 03:42:32;;;;;;;22.92;12.75;;;;;;;22.25;54.21;98987.84;5047165;28;20108;-74
2023/06/20 03:44:59;;;;;;;15.10;12.45;;;;;;;22.23;54.37;98986.31;5046975;28;20248;-73
2023/06/20 03:47:25;;;;;;;15.85;13.48;;;;;;;22.27;54.10;98990.38;5047034;28;20064;-74
2023/06/20 03:49:52;;;;;;;12.98;11.73;;;;;;;22.28;53.94;98979.41;5047328;28;20224;-74
2023/06/20 03:52:20;;;;;;;14.07;12.57;;;;;;;22.29;54.12;98980.25;5046690;28;20320;-74
2023/06/20 03:54:47;;;;;;;14.23;12.52;;;;;;;21.46;54.11;98854.34;5047151;28;20132;-74
2023/06/20 03:57:14;;;;;;;14.32;12.85;;;;;;;21.63;54.08;98865.16;5046298;28;20033;-74
2023/06/20 03:59:40;;;;;;;13.77;11.95;;;;;;;22.33;53.89;98979.75;5046597;28;20064;-74
2023/06/20 04:02:07;;;;;;;13.23;12.00;;;;;;;22.33;53.81;98985.13;5046816;28;20057;-74
2023/06/20 04:04:34;;;;;;;17.80;11.63;;;;;;;22.29;54.25;98982.94;5046555;28;20044;-74
2023/06/20 04:07:01;;;;;;;12.45;11.15;;;;;;;21.93;54.01;98915.78;5046662;28;20046;-74
2023/06/20 04:09:29;;;;;;;15.68;11.68;;;;;;;21.57;53.98;98852.34;5046413;28;20359;-74
2023/06/20 04:11:55;;;;;;;16.98;10.63;;;;;;;22.34;54.20;98981.41;5046977;28;20059;-74
2023/06/20 04:14:22;;;;;;;12.13;10.93;;;;;;;22.37;54.00;98982.94;5046277;28;20047;-74
2023/06/20 04:16:49;;;;;;;11.75;10.65;;;;;;;22.35;53.65;98977.72;5046808;28;20047;-74
2023/06/20 04:19:16;;;;;;;13.15;10.98;;;;;;;22.35;53.12;98980.41;5046534;28;20063;-74
2023/06/20 04:21:43;;;;;;;13.35;11.25;;;;;;;22.31;53.08;98983.63;5046244;28;20045;-74
2023/06/20 04:24:10;;;;;;;11.85;10.30;;;;;;;22.33;52.34;98984.28;5046411;28;20315;-74
2023/06/20 04:26:38;;;;;;;10.43;8.88;;;;;;;22.37;52.19;98985.66;5046387;28;20051;-74
2023/06/20 04:29:05;;;;;;;11.18;9.65;;;;;;;22.33;52.19;98989.69;5046268;28;20048;-74
2023/06/20 04:31:32;;;;;;;11.65;10.45;;;;;;;22.34;51.93;98983.28;5046279;28;20353;-74
2023/06/20 04:33:59;;;;;;;14.82;10.57;;;;;;;22.35;52.09;98985.81;5046521;28;20047;-74
2023/06/20 04:36:26;;;;;;;11.23;10.13;;;;;;;22.30;52.21;98996.28;5046412;28;20052;-74
2023/06/20 04:38:53;;;;;;;11.43;9.52;;;;;;;22.29;52.32;98994.59;5046124;28;20109;-74
2023/06/20 04:41:20;;;;;;;10.55;9.55;;;;;;;22.26;52.46;98994.91;5046102;28;20068;-74
2023/06/20 04:43:49;;;;;;;13.63;9.50;;;;;;;22.35;52.25;99001.16;5046301;28;20057;-74
2023/06/20 04:46:16;;;;;;;10.40;9.40;;;;;;;22.37;52.54;98999.97;5046052;28;20286;-74
2023/06/20 04:48:44;;;;;;;10.50;9.45;;;;;;;22.39;52.68;98999.81;5046731;28;20056;-74
2023/06/20 04:51:12;;;;;;;12.82;11.63;;;;;;;22.39;52.85;98994.41;5046210;28;20056;-74
2023/06/20 04:53:39;;;;;;;10.85;9.80;;;;;;;22.24;52.27;98979.91;5045962;28;20293;-74
2023/06/20 04:56:06;;;;;;;11.82;10.07;;;;;;;22.37;52.23;99004.53;5045935;28;20047;-74
2023/06/20 04:58:33;;;;;;;11.35;10.15;;;;;;;22.25;52.23;98984.28;5045742;28;20041;-74
2023/06/20 05:01:01;;;;;;;11.20;10.13;;;;;;;22.35;51.92;99003.88;5046104;28;20037;-74
2023/06/20 05:03:28;;;;;;;12.82;10.30;;;;;;;22.42;51.81;99002.22;5045839;28;20166;-74
2023/06/20 05:05:55;;;;;;;11.23;10.18;;;;;;;22.46;51.87;99000.03;5045748;28;20045;-74
2023/06/20 05:08:21;;;;;;;10.50;9.50;;;;;;;22.49;51.47;99005.09;5045128;28;20052;-74
2023/06/20 05:10:48;;;;;;;11.32;10.23;;;;;;;22.45;51.35;99006.44;5045983;28;20100;-74
2023/06/20 05:13:15;;;;;;;16.45;13.55;;;;;;;22.46;51.16;99008.13;5045988;28;20053;-74
2023/06/20 05:15:41;;;;;;;18.65;10.90;;;;;;;22.38;51.30;98996.28;5045434;28;20103;-74
2023/06/20 05:18:09;;;;;;;10.35;9.10;;;;;;;22.39;51.08;98999.81;5045933;28;20059;-74
2023/06/20 05:20:36;;;;;;;10.55;9.55;;;;;;;22.41;51.44;99001.38;5045703;28;20155;-74
2023/06/20 05:23:03;;;;;;;11.27;9.98;;;;;;;22.46;51.31;99006.25;5045882;28;20045;-73
2023/06/20 05:25:29;;;;;;;10.82;9.60;;;;;;;22.48;51.32;99004.25;5045604;28;20192;-74
2023/06/20 05:27:56;;;;;;;10.23;9.13;;;;;;;22.52;51.37;99007.44;5045474;28;20050;-74
2023/06/20 05:30:23;;;;;;;9.35;8.27;;;;;;;22.55;51.48;99010.69;5045786;28;20167;-74
2023/06/20 05:32:50;;;;;;;10.20;9.20;;;;;;;22.50;51.56;99009.47;5045809;28;20045;-74
2023/06/20 05:35:18;;;;;;;10.45;9.40;;;;;;;21.79;51.87;98905.63;5045547;28;20045;-74
2023/06/20 05:37:49;;;;;;;10.57;9.57;;;;;;;22.18;51.86;98988.66;5045171;28;20068;-74
2023/06/20 05:40:16;;;;;;;9.82;8.82;;;;;;;22.51;51.81;99027.34;5044996;28;20052;-74
2023/06/20 05:42:42;;;;;;;11.20;10.05;;;;;;;22.40;52.09;99023.97;5045456;28;20064;-73
2023/06/20 05:45:10;;;;;;;9.82;8.82;;;;;;;22.54;51.77;99019.78;5045639;28;20045;-73
2023/06/20 05:47:36;;;;;;;13.35;10.77;;;;;;;22.57;51.72;99032.13;5044946;28;20045;-74
2023/06/20 05:50:04;;;;;;;10.70;9.65;;;;;;;22.57;52.01;99021.31;5045343;28;20300;-73
2023/06/20 05:52:32;;;;;;;11.68;10.10;;;;;;;22.56;51.93;99015.06;5045592;28;20053;-74
2023/06/20 05:54:59;;;;;;;10.75;9.70;;;;;;;22.66;51.66;99029.25;5044986;28;20056;-74
2023/06/20 05:57:26;;;;;;;11.30;10.07;;;;;;;22.69;51.88;99026.22;5045244;28;20041;-74
2023/06/20 05:59:52;;;;;;;10.43;9.05;;;;;;;22.69;52.18;99033.47;5045488;28;20046;-74
2023/06/20 06:02:21;;;;;;;11.48;9.98;;;;;;;22.64;52.05;99033.97;5045249;28;20348;-74
2023/06/20 06:04:48;;;;;;;9.15;8.30;;;;;;;22.68;52.01;99034.47;5045190;28;20301;-74
2023/06/20 06:07:14;;;;;;;10.93;9.85;;;;;;;22.73;51.84;99038.38;5045059;28;20067;-74
2023/06/20 06:09:42;;;;;;;11.15;9.05;;;;;;;22.78;52.22;99037.84;5045377;28;20049;-74
2023/06/20 06:12:10;;;;;;;11.18;8.18;;;;;;;22.83;51.99;99035.47;5044831;28;20241;-74
2023/06/20 06:14:37;;;;;;;9.75;8.68;;;;;;;22.79;51.85;99041.41;5044954;28;20108;-74
2023/06/20 06:17:04;;;;;;;10.43;8.57;;;;;;;22.82;51.93;99046.47;5045051;28;20170;-74
2023/06/20 06:19:31;;;;;;;9.30;8.40;;;;;;;22.91;51.87;99048.97;5047218;28;20281;-74
2023/06/20 06:21:58;;;;;;;9.27;8.32;;;;;;;22.97;51.77;99033.94;5048705;28;20038;-73
2023/06/20 06:24:24;;;;;;;11.70;8.52;;;;;;;22.79;51.64;99012.53;5048344;28;20033;-74
2023/06/20 06:26:52;;;;;;;9.88;8.55;;;;;;;22.95;51.85;99031.41;5048483;28;20274;-73
2023/06/20 06:29:19;;;;;;;13.95;8.70;;;;;;;22.99;51.82;99040.03;5048266;28;20286;-74
2023/06/20 06:31:46;;;;;;;9.82;8.60;;;;;;;22.99;51.72;99040.03;5048797;28;20096;-74
2023/06/20 06:34:17;;;;;;;9.75;8.73;;;;;;;23.07;51.59;99041.88;5048401;28;20049;-73
2023/06/20 06:36:48;;;;;;;11.30;8.85;;;;;;;23.07;51.49;99045.41;5048605;28;20095;-73
2023/06/20 06:39:17;;;;;;;9.95;8.65;;;;;;;23.08;51.42;99054.38;5048186;28;20049;-74
2023/06/20 06:41:45;;;;;;;10.50;8.65;;;;;;;23.12;51.35;99043.03;5048384;28;20065;-74
2023/06/20 06:44:13;;;;;;;10.50;8.55;;;;;;;23.17;51.45;99047.94;5048294;28;20046;-74
2023/06/20 06:46:40;;;;;;;9.35;8.45;;;;;;;23.24;51.56;99049.78;5048464;28;20050;-74
2023/06/20 06:49:06;;;;;;;9.05;7.70;;;;;;;23.28;51.48;99048.44;5047857;28;20037;-74
2023/06/20 06:51:33;;;;;;;9.57;8.68;;;;;;;23.31;51.24;99045.38;5047878;28;20041;-74
2023/06/20 06:54:00;;;;;;;9.88;8.10;;;;;;;23.14;51.28;99005.03;5048294;28;20059;-74
2023/06/20 06:56:27;;;;;;;12.65;8.77;;;;;;;23.43;51.18;99045.03;5047987;28;20033;-74
2023/06/20 06:58:57;;;;;;;9.32;8.43;;;;;;;23.51;51.06;99039.56;5048158;28;20074;-74
2023/06/20 07:01:26;;;;;;;10.23;9.13;;;;;;;23.60;50.69;99046.66;5047716;28;20065;-74
2023/06/20 07:03:53;;;;;;;9.45;8.50;;;;;;;23.59;50.93;99044.97;5048207;28;20167;-73
2023/06/20 07:06:20;;;;;;;9.98;9.07;;;;;;;23.67;51.05;99044.94;5048463;28;20213;-73
2023/06/20 07:08:47;;;;;;;8.65;7.78;;;;;;;23.69;51.12;99043.72;5047817;28;20048;-73
2023/06/20 07:11:14;;;;;;;9.90;8.65;;;;;;;22.93;51.26;98887.53;5048055;28;20091;-74
2023/06/20 07:13:40;;;;;;;12.40;8.60;;;;;;;23.95;50.43;99035.31;5047457;28;20109;-73
2023/06/20 07:16:08;;;;;;;9.07;8.18;;;;;;;24.00;50.65;99030.25;5047235;28;20064;-74
2023/06/20 07:18:36;;;;;;;10.07;9.00;;;;;;;24.10;50.25;99034.59;5047909;28;20033;-74
2023/06/20 07:21:03;;;;;;;7.90;7.20;;;;;;;23.61;50.46;98943.69;5047350;28;20045;-74
2023/06/20 07:23:30;;;;;;;10.02;8.60;;;;;;;24.23;50.41;99042.97;5047512;28;20104;-74
2023/06/20 07:25:57;;;;;;;9.85;8.95;;;;;;;24.32;50.05;99044.59;5047701;28;20045;-73
2023/06/20 07:28:25;;;;;;;9.77;8.57;;;;;;;24.38;49.96;99026.78;5047368;28;20312;-74
2023/06/20 07:30:51;;;;;;;8.82;8.02;;;;;;;24.47;49.94;99041.94;5046775;28;20049;-74
2023/06/20 07:33:18;;;;;;;9.32;8.20;;;;;;;24.45;49.57;99042.13;5047074;28;20249;-74
2023/06/20 07:35:47;;;;;;;17.67;9.07;;;;;;;24.48;49.84;99041.75;5047531;28;20045;-73
2023/06/20 07:38:13;;;;;;;8.88;7.97;;;;;;;24.73;49.61;99030.75;5047088;28;20041;-74
2023/06/20 07:40:41;;;;;;;10.95;8.13;;;;;;;24.86;49.35;99030.97;5046786;28;20053;-74
2023/06/20 07:43:08;;;;;;;10.07;9.07;;;;;;;24.84;48.86;99008.63;5047237;28;20286;-74
2023/06/20 07:45:36;;;;;;;9.48;8.40;;;;;;;24.99;48.63;99023.06;5047095;28;20045;-74
2023/06/20 07:48:03;;;;;;;9.57;8.60;;;;;;;24.56;48.98;98952.31;5046971;28;20037;-74
2023/06/20 07:50:30;;;;;;;9.48;8.55;;;;;;;25.14;48.55;99018.53;5047250;28;20037;-74
2023/06/20 07:52:58;;;;;;;9.60;8.25;;;;;;;25.06;48.08;99021.31;5047255;28;20049;-73
2023/06/20 07:55:25;;;;;;;14.38;8.90;;;;;;;25.14;48.42;99023.09;5046973;28;20297;-74
2023/06/20 07:57:53;;;;;;;9.30;7.40;;;;;;;25.23;48.03;98998.44;5047013;28;20037;-74
2023/06/20 08:00:21;;;;;;;10.20;9.15;;;;;;;25.33;48.04;99013.59;5046839;28;20056;-74
2023/06/20 08:02:48;;;;;;;8.98;8.07;;;;;;;25.39;47.58;99008.28;5046505;28;20245;-74
2023/06/20 08:05:14;;;;;;;8.75;7.95;;;;;;;25.38;47.96;99005.75;5046436;28;20053;-74
2023/06/20 08:07:41;;;;;;;10.75;9.63;;;;;;;25.28;47.66;99017.69;5046418;28;20056;-74
2023/06/20 08:10:11;;;;;;;9.20;8.27;;;;;;;25.35;47.90;99009.69;5046238;28;20048;-73
2023/06/20 08:12:37;;;;;;;9.63;8.65;;;;;;;25.56;47.86;99009.75;5046522;28;20045;-73
2023/06/20 08:15:05;;;;;;;10.23;8.38;;;;;;;25.61;47.79;99001.06;5046438;28;20301;-74
2023/06/20 08:17:32;;;;;;;12.07;8.43;;;;;;;25.66;46.87;99000.47;5046216;28;20046;-74
2023/06/20 08:19:59;;;;;;;9.38;8.05;;;;;;;25.69;46.97;98992.81;5046391;28;20060;-74
2023/06/20 08:22:26;;;;;;;9.93;8.73;;;;;;;25.92;46.88;99000.81;5046430;28;20053;-74
2023/06/20 08:24:53;;;;;;;10.95;8.93;;;;;;;26.14;46.38;98993.56;5046568;28;20045;-74
2023/06/20 08:27:21;;;;;;;11.95;7.38;;;;;;;26.13;46.07;98995.44;5046080;28;20037;-74
2023/06/20 08:29:47;;;;;;;9.50;8.35;;;;;;;26.16;45.93;98995.03;5046220;28;20055;-74
2023/06/20 08:32:14;;;;;;;9.02;7.57;;;;;;;26.28;46.18;98994.53;5046268;28;20045;-74
2023/06/20 08:34:41;;;;;;;9.80;8.30;;;;;;;26.36;45.77;98992.53;5044953;28;20061;-73
2023/06/20 08:37:08;;;;;;;9.93;8.10;;;;;;;26.60;45.48;98993.16;5046102;28;20375;-74
2023/06/20 08:39:35;;;;;;;9.68;8.27;;;;;;;26.70;45.58;98999.97;5045822;28;20053;-74
2023/06/20 08:42:01;;;;;;;10.18;8.10;;;;;;;26.86;45.54;98994.22;5045909;28;20135;-74
2023/06/20 08:44:29;;;;;;;10.52;8.05;;;;;;;26.63;44.11;98987.34;5045858;28;20141;-74
2023/06/20 08:46:57;;;;;;;9.13;7.68;;;;;;;26.73;44.12;98993.28;5045783;28;20045;-74
2023/06/20 08:49:24;;;;;;;10.50;8.52;;;;;;;26.70;44.53;99008.13;5045649;28;20041;-74
2023/06/20 08:51:54;;;;;;;10.32;8.00;;;;;;;26.79;44.30;99004.22;5046106;28;20045;-74
2023/06/20 08:54:23;;;;;;;8.63;7.82;;;;;;;26.85;44.13;99002.59;5045681;28;20064;-74
2023/06/20 08:56:50;;;;;;;11.43;7.70;;;;;;;26.88;43.84;99010.34;5045910;28;20204;-74
2023/06/20 08:59:21;;;;;;;13.13;7.63;;;;;;;27.03;43.53;99012.97;5046096;28;20095;-74
2023/06/20 09:01:49;;;;;;;8.30;7.50;;;;;;;27.12;44.18;98995.47;5046034;28;20052;-74
2023/06/20 09:04:18;;;;;;;8.98;7.57;;;;;;;27.02;43.48;98998.53;5045737;28;20182;-74
2023/06/20 09:06:47;;;;;;;7.80;7.00;;;;;;;27.09;43.68;98993.13;5045839;28;20067;-73
2023/06/20 09:09:16;;;;;;;10.07;7.28;;;;;;;26.87;43.57;98946.13;5045637;28;20041;-74
2023/06/20 09:11:48;;;;;;;8.50;7.05;;;;;;;27.21;43.68;98987.97;5045409;28;20038;-74
2023/06/20 09:14:15;;;;;;;8.63;7.70;;;;;;;27.26;43.38;98989.09;5045340;28;20205;-74
2023/06/20 09:16:42;;;;;;;8.80;7.88;;;;;;;27.21;43.30;99007.88;5045836;28;20049;-74
2023/06/20 09:19:10;;;;;;;12.23;7.50;;;;;;;27.23;43.13;98992.22;5045426;28;20049;-74
2023/06/20 09:21:37;;;;;;;8.45;7.50;;;;;;;27.48;42.96;98989.84;5045367;28;20061;-74
2023/06/20 09:24:06;;;;;;;16.80;7.88;;;;;;;27.34;42.96;98994.38;5045560;28;20057;-74
2023/06/20 09:26:33;;;;;;;10.93;8.05;;;;;;;27.42;42.99;98988.75;5045358;28;20053;-74
2023/06/20 09:29:08;;;;;;;8.82;7.93;;;;;;;27.68;42.45;98979.91;5045360;28;20042;-74
2023/06/20 09:31:43;;;;;;;10.95;8.00;;;;;;;27.68;42.24;98987.25;5045483;28;20037;-74
2023/06/20 09:34:15;;;;;;;8.63;7.70;;;;;;;27.50;39.93;98988.59;5045583;28;20053;-74
2023/06/20 09:36:42;;;;;;;9.77;6.70;;;;;;;27.67;39.90;99018.22;5045659;28;20037;-74
2023/06/20 09:39:11;;;;;;;8.65;7.30;;;;;;;27.87;39.29;99005.56;5045465;28;20053;-74
2023/06/20 09:41:44;;;;;;;7.97;7.03;;;;;;;28.10;38.87;98989.72;5045053;28;20060;-74
2023/06/20 09:44:11;;;;;;;8.20;7.40;;;;;;;27.90;38.99;98979.81;5045681;28;20248;-74
2023/06/20 09:46:38;;;;;;;9.10;7.28;;;;;;;28.09;39.64;99001.66;5045536;28;20045;-74
2023/06/20 09:49:06;;;;;;;15.23;8.23;;;;;;;27.95;40.04;98994.50;5045331;28;20096;-74
2023/06/20 09:51:35;;;;;;;10.13;7.93;;;;;;;28.08;39.55;98994.53;5046007;28;20053;-73
2023/06/20 09:54:05;;;;;;;7.78;7.07;;;;;;;28.15;39.49;98991.81;5046917;28;20041;-73
2023/06/20 09:56:40;;;;;;;8.80;8.00;;;;;;;28.41;39.74;98999.19;5048927;28;20063;-73
2023/06/20 09:59:10;;;;;;;7.97;7.18;;;;;;;28.39;39.80;99002.13;5049376;28;20096;-73
2023/06/20 10:01:39;;;;;;;9.50;7.78;;;;;;;28.39;39.20;99001.28;5048645;28;20045;-73
2023/06/20 10:04:06;;;;;;;7.78;7.07;;;;;;;28.20;39.50;98994.75;5048566;28;20052;-73
2023/06/20 10:06:37;;;;;;;7.70;7.00;;;;;;;28.18;39.60;98994.13;5048656;28;20367;-73
2023/06/20 10:09:06;;;;;;;8.82;7.93;;;;;;;28.24;40.19;98987.84;5048547;28;20048;-73
2023/06/20 10:11:33;;;;;;;9.13;8.20;;;;;;;28.26;40.18;99002.09;5048320;28;20041;-73
2023/06/20 10:14:00;;;;;;;9.57;7.53;;;;;;;28.21;40.39;98991.00;5048752;28;20352;-73
2023/06/20 10:16:29;;;;;;;8.13;7.32;;;;;;;28.34;40.08;98988.28;5048668;28;20050;-73
2023/06/20 10:18:56;;;;;;;9.75;7.78;;;;;;;28.62;39.30;98982.69;5048395;28;20030;-73
2023/06/20 10:21:54;;;;;;;8.18;7.38;;;;;;;28.52;40.13;98986.88;5048397;28;20037;-73
2023/06/20 10:24:21;;;;;;;8.45;7.65;;;;;;;28.76;39.51;98991.69;5048839;28;20102;-73
2023/06/20 10:26:53;;;;;;;8.50;7.32;;;;;;;28.62;39.13;98995.47;5048355;28;20045;-73
2023/06/20 10:29:19;;;;;;;10.00;8.52;;;;;;;28.66;39.55;98992.13;5048558;28;20065;-74
2023/06/20 10:31:57;;;;;;;8.57;7.75;;;;;;;28.68;39.93;98987.28;5048076;28;20045;-74
2023/06/20 10:34:33;;;;;;;8.80;7.90;;;;;;;28.73;40.06;98992.94;5048332;28;20185;-74
2023/06/20 10:37:38;;;;;;;9.68;7.75;;;;;;;28.87;40.33;98982.03;5048322;28;20037;-74
2023/06/20 10:40:08;;;;;;;9.10;7.40;;;;;;;28.24;40.64;98908.84;5038275;28;20045;-74
2023/06/20 10:42:41;;;;;;;8.30;7.47;;;;;;;28.65;40.61;99003.22;5048367;28;20278;-74
2023/06/20 10:45:17;;;;;;;10.23;7.65;;;;;;;28.49;40.10;99007.22;5048478;28;20045;-74
2023/06/20 10:47:44;;;;;;;8.52;7.35;;;;;;;28.38;40.70;98992.28;5048033;28;20260;-74
2023/06/20 10:50:11;;;;;;;8.57;7.78;;;;;;;28.65;40.20;98995.06;5048354;28;20084;-74
2023/06/20 10:52:40;;;;;;;8.38;7.68;;;;;;;28.61;40.31;98993.78;5048064;28;20045;-74
2023/06/20 10:55:09;;;;;;;8.77;7.88;;;;;;;28.74;40.69;98989.19;5048264;28;20053;-74
2023/06/20 10:57:35;;;;;;;8.73;7.10;;;;;;;28.65;40.89;98984.16;5048086;28;20040;-74
2023/06/20 11:00:09;;;;;;;8.70;7.53;;;;;;;28.88;40.71;98979.09;5047917;28;20037;-74
2023/06/20 11:02:36;;;;;;;9.13;7.70;;;;;;;28.07;40.52;98856.66;5048103;28;20354;-74
2023/06/20 11:05:04;;;;;;;8.77;7.45;;;;;;;28.88;40.73;98973.66;5046270;28;20087;-74
2023/06/20 11:07:30;;;;;;;8.80;7.90;;;;;;;28.96;40.61;98975.31;5047725;28;20104;-74
2023/06/20 11:09:58;;;;;;;9.20;8.13;;;;;;;28.93;40.62;98973.84;5047365;28;20087;-74
2023/06/20 11:12:25;;;;;;;10.02;7.28;;;;;;;29.08;40.15;98970.91;5045441;28;20064;-74
2023/06/20 11:14:52;;;;;;;9.50;7.70;;;;;;;28.96;40.68;98965.25;5047588;28;20092;-74
2023/06/20 11:17:18;;;;;;;9.25;8.40;;;;;;;28.79;40.08;98931.28;5047444;28;20111;-74
2023/06/20 11:19:45;;;;;;;8.20;7.40;;;;;;;29.15;39.44;98973.63;5047438;28;20408;-74
2023/06/20 11:22:12;;;;;;;10.32;8.23;;;;;;;29.10;39.89;98970.72;5047862;28;20094;-74
2023/06/20 11:24:39;;;;;;;8.40;7.57;;;;;;;29.07;39.66;98961.06;5047268;28;20046;-74
2023/06/20 11:27:13;;;;;;;8.80;6.85;;;;;;;29.36;39.87;98960.56;5047369;28;20037;-74
2023/06/20 11:29:40;;;;;;;9.50;8.15;;;;;;;29.27;39.58;98959.13;5047266;28;20205;-73